首页
METAR-TAF:

METAR-TAF

机场 :

車里雅賓斯克機場

車里雅賓斯克, 俄罗斯

纬度: 55-10N, 经度: 061-24E, 海拔: 234米

当前天气观测

该预报发布于32分钟前的12:00 UTC
风速10节,风向北转东北
温度 20°C
湿度 56%
气压 1007 hPa
能见度10公里或以上
散云层高于4000英尺, 积雨云.

METAR: USCC 231200Z 02005MPS 9999 SCT040CB 20/11 Q1007 R27/000060 NOSIG RMK QFE735

时间: 17:32 (12:32 UTC)

预报

该预报发布于1小时和40分钟前的10:52 UTC
预报有效从23日的 12点(UTC)到 24日的 12点(UTC)
风速6节,风向,有时为19节阵风
能见度10公里或以上
散云层高于4000英尺, 积雨云.
短暂存在
从 23日的 12点(UTC)到 23日的 15点(UTC)
风速19节,风向
多云层高于2000英尺, 积雨云.
小阵雨,

TAF: USCC 231052Z 2312/2412 35003G10MPS 9999 SCT040CB TEMPO 2312/2315 01010MPS -SHRA BKN020CB

超过4000个机场的气象观测和天气预报(METAR&TAF报告)。

可查询的气象台以黄色和红色小点在地图上表示。

将鼠标移到小点上方,可查看气象台名称。

然后点击查看天气观测和预报。

如需切换地图:点击带黑十字的绿色按钮放大地图;点击带横线的绿色按钮缩小地图;或者点击绿色箭头查看邻近地区的地图。


METAR-TAF: